Time;durP1;ratioP1;P1;durP2;ratioP2;P2;SDS_P1;SDS_P2;PMS_P1;PMS_P2;Temp;Humidity;BMP_temperature;BMP_pressure;BME280_temperature;BME280_humidity;BME280_pressure;Samples;Min_cycle;Max_cycle;Signal;HPM_P1;HPM_P2
2022/01/05 00:03:16;;;;;;;1.30;0.80;;;17.70;67.10;;;;;;10427688;28;20255;-72
2022/01/05 00:08:38;;;;;;;1.63;0.80;;;17.70;67.10;;;;;;10417100;28;20193;-71
2022/01/05 00:14:02;;;;;;;1.77;0.83;;;17.70;67.10;;;;;;10424255;28;20643;-71
2022/01/05 00:19:24;;;;;;;1.30;0.90;;;17.80;67.10;;;;;;10414355;28;20221;-72
2022/01/05 00:24:46;;;;;;;2.00;1.00;;;17.80;67.10;;;;;;10392951;28;20201;-72
2022/01/05 00:30:11;;;;;;;1.97;1.10;;;17.70;67.00;;;;;;10417301;28;20218;-71
2022/01/05 00:35:33;;;;;;;2.30;1.10;;;17.70;67.00;;;;;;10412608;28;20241;-72
2022/01/05 00:40:55;;;;;;;2.13;0.80;;;17.70;67.00;;;;;;10412916;28;20222;-72
2022/01/05 00:46:18;;;;;;;1.10;0.80;;;17.70;67.00;;;;;;10413375;28;20194;-71
2022/01/05 00:51:40;;;;;;;1.93;0.87;;;17.70;67.00;;;;;;10406263;28;20673;-70
2022/01/05 00:57:03;;;;;;;1.40;0.77;;;17.70;66.90;;;;;;10412432;28;20228;-71
2022/01/05 01:02:26;;;;;;;1.30;0.80;;;17.80;67.00;;;;;;10411952;28;20226;-71
2022/01/05 01:07:48;;;;;;;1.80;0.90;;;17.70;66.90;;;;;;10411527;28;20194;-72
2022/01/05 01:13:14;;;;;;;1.63;1.07;;;17.70;66.90;;;;;;10397575;28;20209;-72
2022/01/05 01:18:38;;;;;;;1.43;0.80;;;17.80;66.90;;;;;;10411753;28;20258;-71
2022/01/05 01:24:00;;;;;;;1.33;0.67;;;17.70;66.80;;;;;;10426931;28;20224;-72
2022/01/05 01:29:22;;;;;;;0.97;0.80;;;17.70;66.80;;;;;;10427687;28;20661;-73
2022/01/05 01:34:45;;;;;;;1.67;0.90;;;17.70;66.80;;;;;;10410300;28;20201;-72
2022/01/05 01:40:09;;;;;;;2.77;0.87;;;17.70;66.80;;;;;;10410480;28;20728;-72
2022/01/05 01:45:31;;;;;;;1.93;0.80;;;17.80;66.80;;;;;;10427958;28;20217;-73
2022/01/05 01:50:54;;;;;;;1.47;0.73;;;17.70;66.70;;;;;;10410367;28;20592;-71
2022/01/05 01:56:18;;;;;;;1.90;0.90;;;17.80;66.70;;;;;;10410062;28;20715;-71
2022/01/05 02:01:40;;;;;;;1.03;0.90;;;17.70;66.70;;;;;;10409397;28;20233;-72
2022/01/05 02:07:05;;;;;;;3.03;0.93;;;17.70;66.70;;;;;;10408011;28;20202;-72
2022/01/05 02:12:27;;;;;;;1.43;0.90;;;17.70;66.70;;;;;;10418904;28;20216;-71
2022/01/05 02:17:55;;;;;;;1.70;0.40;;;17.70;66.60;;;;;;10408722;28;20197;-71
2022/01/05 02:23:18;;;;;;;2.53;1.10;;;17.70;66.50;;;;;;10417795;28;20217;-71
2022/01/05 02:28:42;;;;;;;1.93;0.97;;;17.70;66.60;;;;;;10370304;28;20198;-71
2022/01/05 02:34:05;;;;;;;1.53;0.87;;;17.70;66.60;;;;;;10409350;28;20225;-72
2022/01/05 02:39:28;;;;;;;2.07;0.97;;;17.70;66.60;;;;;;10408977;28;20218;-72
2022/01/05 02:44:50;;;;;;;0.90;0.60;;;17.70;66.40;;;;;;10408882;28;20695;-72
2022/01/05 02:50:13;;;;;;;1.67;0.70;;;17.70;66.40;;;;;;10403557;28;20216;-71
2022/01/05 02:55:37;;;;;;;2.13;0.80;;;17.70;66.50;;;;;;10409586;28;20600;-72
2022/01/05 03:00:59;;;;;;;1.23;0.70;;;17.70;66.60;;;;;;10414066;28;20570;-71
2022/01/05 03:06:22;;;;;;;1.57;0.60;;;17.70;66.50;;;;;;10415751;28;20213;-72
2022/01/05 03:11:45;;;;;;;1.70;0.80;;;17.70;66.40;;;;;;10419609;28;20205;-71
2022/01/05 03:17:07;;;;;;;1.87;0.83;;;17.70;66.40;;;;;;10434181;28;20216;-71
2022/01/05 03:22:29;;;;;;;1.43;0.63;;;17.70;66.30;;;;;;10421386;28;20228;-72
2022/01/05 03:27:54;;;;;;;2.17;1.00;;;17.70;66.40;;;;;;10416519;28;20628;-71
2022/01/05 03:33:20;;;;;;;1.53;0.97;;;17.70;66.40;;;;;;10453877;28;20216;-70
2022/01/05 03:38:42;;;;;;;1.77;0.83;;;17.70;66.20;;;;;;10418183;28;20669;-71
2022/01/05 03:44:06;;;;;;;2.37;1.17;;;17.70;66.20;;;;;;10415699;28;20233;-71
2022/01/05 03:49:28;;;;;;;1.83;0.80;;;17.70;66.30;;;;;;10408692;28;20224;-71
2022/01/05 03:54:51;;;;;;;1.07;0.70;;;17.70;66.20;;;;;;10419787;28;20201;-71
2022/01/05 04:00:15;;;;;;;1.93;0.87;;;17.70;66.30;;;;;;10415514;28;20275;-69
2022/01/05 04:05:38;;;;;;;1.33;0.60;;;17.70;66.10;;;;;;10415033;28;20554;-72
2022/01/05 04:11:00;;;;;;;2.77;0.70;;;17.70;66.00;;;;;;10416992;28;20721;-72
2022/01/05 04:16:23;;;;;;;1.33;0.67;;;17.70;66.00;;;;;;10433504;28;20208;-72
2022/01/05 04:21:45;;;;;;;1.33;0.80;;;17.70;66.10;;;;;;10411798;28;20226;-71
2022/01/05 04:27:07;;;;;;;2.73;0.73;;;17.70;66.10;;;;;;10413913;28;20205;-72
2022/01/05 04:32:31;;;;;;;2.33;1.00;;;17.70;66.10;;;;;;10412928;28;20214;-72
2022/01/05 04:37:53;;;;;;;1.63;0.60;;;17.70;65.80;;;;;;10414173;28;20221;-71
2022/01/05 04:43:15;;;;;;;1.63;0.77;;;17.70;66.00;;;;;;10470407;23;20624;-67
2022/01/05 04:48:39;;;;;;;1.40;0.70;;;17.70;66.00;;;;;;10444205;28;20217;-67
2022/01/05 04:54:01;;;;;;;1.83;0.80;;;17.70;65.90;;;;;;10441833;28;20243;-67
2022/01/05 04:59:23;;;;;;;1.90;0.87;;;17.70;65.70;;;;;;10451996;28;20690;-67
2022/01/05 05:04:47;;;;;;;2.13;0.80;;;17.70;65.60;;;;;;10453318;28;20193;-66
2022/01/05 05:10:09;;;;;;;2.67;0.80;;;17.80;65.80;;;;;;10454872;28;20927;-67
2022/01/05 05:15:31;;;;;;;1.30;0.80;;;17.80;65.80;;;;;;10454425;28;20208;-67
2022/01/05 05:20:55;;;;;;;1.50;0.70;;;17.80;65.80;;;;;;10450992;28;20221;-67
2022/01/05 05:26:17;;;;;;;1.70;0.90;;;17.80;66.00;;;;;;10450235;28;20662;-67
2022/01/05 05:31:39;;;;;;;1.23;0.67;;;17.80;66.10;;;;;;10413059;28;20213;-66
2022/01/05 05:37:03;;;;;;;1.30;0.77;;;17.80;66.00;;;;;;10439620;28;20209;-65
2022/01/05 05:42:25;;;;;;;1.33;0.70;;;17.70;66.00;;;;;;10452053;28;20219;-65
2022/01/05 05:47:47;;;;;;;1.60;0.70;;;17.80;66.10;;;;;;10475255;28;20197;-64
2022/01/05 05:53:11;;;;;;;1.63;0.87;;;17.70;66.10;;;;;;10449566;28;20189;-65
2022/01/05 05:58:33;;;;;;;1.30;0.57;;;17.70;66.10;;;;;;10448127;28;20217;-65
2022/01/05 06:03:55;;;;;;;2.37;0.90;;;17.70;66.00;;;;;;10449164;28;20219;-67
2022/01/05 06:09:19;;;;;;;0.90;0.57;;;17.70;66.10;;;;;;10449531;28;20216;-64
2022/01/05 06:14:41;;;;;;;1.77;0.77;;;17.70;66.00;;;;;;10449676;28;20201;-63
2022/01/05 06:20:05;;;;;;;1.30;0.50;;;17.70;66.00;;;;;;10443694;28;20736;-64
2022/01/05 06:25:29;;;;;;;2.33;0.73;;;17.70;66.00;;;;;;10444056;28;20204;-65
2022/01/05 06:30:51;;;;;;;2.07;0.80;;;17.70;66.00;;;;;;10438562;28;20216;-65
2022/01/05 06:36:13;;;;;;;1.60;0.63;;;17.70;66.00;;;;;;10445065;28;20201;-66
2022/01/05 06:41:37;;;;;;;2.63;0.80;;;17.70;66.00;;;;;;10449530;28;20225;-67
2022/01/05 06:46:59;;;;;;;0.90;0.60;;;17.70;65.90;;;;;;10449411;28;20204;-67
2022/01/05 06:52:21;;;;;;;2.20;0.90;;;17.70;65.90;;;;;;10449029;28;20217;-66
2022/01/05 06:57:44;;;;;;;2.03;0.83;;;17.70;65.90;;;;;;10447442;28;20193;-65
2022/01/05 07:03:06;;;;;;;1.40;0.90;;;17.80;66.00;;;;;;10447728;28;20209;-67
2022/01/05 07:08:28;;;;;;;2.30;0.83;;;17.70;66.00;;;;;;10448126;28;20586;-67
2022/01/05 07:13:52;;;;;;;1.83;0.77;;;17.70;65.90;;;;;;10449654;28;20182;-66
2022/01/05 07:19:15;;;;;;;1.87;0.80;;;17.70;65.90;;;;;;10433590;28;20707;-66
2022/01/05 07:24:38;;;;;;;1.63;0.80;;;17.70;65.90;;;;;;10440563;28;20204;-68
2022/01/05 07:30:01;;;;;;;2.67;0.73;;;17.70;65.20;;;;;;10444102;28;20217;-66
2022/01/05 07:35:23;;;;;;;0.93;0.50;;;17.70;65.00;;;;;;10436988;28;20201;-66
2022/01/05 07:40:46;;;;;;;5.83;1.10;;;17.70;65.80;;;;;;10447359;28;20217;-69
2022/01/05 07:46:10;;;;;;;2.87;0.77;;;17.70;65.70;;;;;;10449651;28;20651;-66
2022/01/05 07:51:33;;;;;;;1.47;0.70;;;17.70;65.10;;;;;;10443696;28;20219;-67
2022/01/05 07:56:55;;;;;;;3.10;0.93;;;17.60;65.10;;;;;;10451884;28;20208;-66
2022/01/05 08:02:18;;;;;;;2.47;1.03;;;17.60;65.10;;;;;;10439991;28;20231;-66
2022/01/05 08:07:41;;;;;;;1.57;0.70;;;17.60;65.30;;;;;;10452141;28;20574;-67
2022/01/05 08:13:03;;;;;;;2.73;1.10;;;17.60;65.50;;;;;;10447120;28;20193;-66
2022/01/05 08:18:27;;;;;;;2.53;1.00;;;17.60;65.90;;;;;;10450831;28;20594;-68
2022/01/05 08:23:50;;;;;;;2.07;0.97;;;17.70;65.90;;;;;;10452623;28;20220;-67
2022/01/05 08:29:12;;;;;;;2.43;1.03;;;17.60;65.80;;;;;;10451180;28;20300;-66
2022/01/05 08:34:36;;;;;;;2.43;0.70;;;17.70;65.80;;;;;;10452986;28;20562;-66
2022/01/05 08:39:58;;;;;;;3.53;1.00;;;17.70;66.30;;;;;;10452087;28;20590;-67
2022/01/05 08:45:21;;;;;;;2.07;0.80;;;17.70;66.30;;;;;;10444382;28;20259;-66
2022/01/05 08:50:45;;;;;;;3.13;1.00;;;17.70;66.20;;;;;;10450926;28;20216;-65
2022/01/05 08:56:07;;;;;;;2.43;1.20;;;17.80;66.20;;;;;;10427450;28;20663;-66
2022/01/05 09:01:29;;;;;;;2.43;1.10;;;17.70;66.10;;;;;;10447953;28;20220;-68
2022/01/05 09:06:53;;;;;;;3.03;1.13;;;17.80;66.00;;;;;;10447189;28;20201;-64
2022/01/05 09:12:15;;;;;;;4.57;1.17;;;17.80;65.80;;;;;;10436156;28;20232;-65
2022/01/05 09:17:37;;;;;;;4.13;1.50;;;17.80;65.70;;;;;;10449308;28;20197;-65
2022/01/05 09:23:02;;;;;;;3.20;1.20;;;17.80;65.70;;;;;;10433571;28;20213;-65
2022/01/05 09:28:24;;;;;;;3.93;1.47;;;17.80;66.20;;;;;;10449706;28;20306;-65
2022/01/05 09:33:46;;;;;;;2.40;1.10;;;17.70;65.60;;;;;;10450012;28;20193;-65
2022/01/05 09:44:52;;;;;;;3.73;1.10;;;17.70;65.90;;;;;;10449460;28;20212;-68
2022/01/05 09:50:15;;;;;;;2.83;1.00;;;17.70;65.90;;;;;;10448415;28;20213;-66
2022/01/05 09:55:39;;;;;;;2.30;1.10;;;17.70;66.00;;;;;;10449185;28;20189;-68
2022/01/05 10:01:02;;;;;;;2.73;1.40;;;17.70;66.00;;;;;;10447091;28;20216;-67
2022/01/05 10:06:25;;;;;;;1.87;1.10;;;17.70;66.00;;;;;;10433136;28;20193;-65
2022/01/05 10:11:48;;;;;;;3.07;0.93;;;17.70;66.00;;;;;;10446991;28;20205;-66
2022/01/05 10:17:12;;;;;;;4.40;1.13;;;17.70;66.00;;;;;;10448770;28;20585;-65
2022/01/05 10:22:36;;;;;;;1.43;0.73;;;17.70;65.90;;;;;;10447874;28;20224;-65
2022/01/05 10:28:02;;;;;;;2.80;1.23;;;17.80;65.90;;;;;;10449384;28;20224;-66
2022/01/05 10:33:29;;;;;;;4.43;1.27;;;17.80;65.80;;;;;;10449527;28;20193;-66
2022/01/05 10:38:55;;;;;;;3.27;1.10;;;17.80;65.70;;;;;;10447063;28;20275;-66
2022/01/05 10:44:21;;;;;;;2.13;1.10;;;17.80;65.60;;;;;;10431448;23;20233;-64
2022/01/05 10:49:44;;;;;;;3.53;1.07;;;17.80;65.70;;;;;;10439617;28;20220;-63
2022/01/05 10:55:12;;;;;;;1.73;1.07;;;17.80;65.70;;;;;;10408005;28;20567;-66
2022/01/05 11:00:40;;;;;;;1.30;0.90;;;17.80;65.60;;;;;;10412038;28;20224;-63
2022/01/05 11:06:08;;;;;;;3.13;1.00;;;17.80;65.60;;;;;;10407599;28;20193;-62
2022/01/05 11:11:36;;;;;;;3.00;1.10;;;17.80;65.60;;;;;;10440014;28;20575;-63
2022/01/05 11:17:01;;;;;;;2.03;0.80;;;17.80;65.60;;;;;;10406248;28;20200;-65
2022/01/05 11:22:24;;;;;;;1.87;0.90;;;17.80;65.60;;;;;;10413142;28;20222;-63
2022/01/05 11:27:46;;;;;;;1.90;0.87;;;17.90;65.70;;;;;;10415039;28;20186;-63
2022/01/05 11:33:10;;;;;;;1.33;0.63;;;17.80;65.50;;;;;;10431480;28;20194;-65
2022/01/05 11:38:32;;;;;;;1.80;0.70;;;17.80;65.50;;;;;;10454961;28;20220;-63
2022/01/05 11:43:55;;;;;;;1.40;0.73;;;17.80;65.50;;;;;;10433887;28;20214;-62
2022/01/05 11:49:26;;;;;;;1.63;0.60;;;17.80;65.50;;;;;;10412636;28;20225;-63
2022/01/05 11:55:05;;;;;;;1.23;0.67;;;17.80;65.40;;;;;;10445509;28;20261;-64
2022/01/05 12:00:27;;;;;;;1.47;0.70;;;17.80;65.30;;;;;;10401475;28;20217;-64
2022/01/05 12:06:07;;;;;;;1.37;0.80;;;17.80;65.40;;;;;;10413297;28;20682;-63
2022/01/05 12:11:31;;;;;;;1.60;0.80;;;17.80;65.20;;;;;;10412227;28;20214;-64
2022/01/05 12:17:12;;;;;;;1.23;0.77;;;17.80;65.40;;;;;;10414054;28;20690;-67
2022/01/05 12:22:36;;;;;;;1.97;0.77;;;17.80;65.20;;;;;;10411871;28;20583;-64
2022/01/05 12:28:02;;;;;;;1.63;0.60;;;17.80;65.40;;;;;;10413367;28;20204;-66
2022/01/05 12:33:25;;;;;;;1.80;0.70;;;17.80;65.40;;;;;;10433206;28;20264;-64
2022/01/05 12:38:51;;;;;;;1.10;0.60;;;17.80;65.40;;;;;;10447595;28;20213;-63
2022/01/05 12:44:43;;;;;;;1.80;0.53;;;17.80;65.40;;;;;;10416501;28;20674;-63
2022/01/05 12:50:20;;;;;;;0.93;0.70;;;17.80;65.10;;;;;;10442816;28;20683;-64
2022/01/05 12:55:50;;;;;;;1.80;0.70;;;17.80;65.20;;;;;;10411255;28;20540;-64
2022/01/05 13:01:12;;;;;;;1.63;0.87;;;17.80;65.30;;;;;;10451875;28;20578;-67
2022/01/05 13:06:34;;;;;;;1.83;0.80;;;17.80;65.40;;;;;;10421377;28;20552;-63
2022/01/05 13:11:59;;;;;;;1.43;0.57;;;17.80;65.90;;;;;;10447249;28;20209;-63
2022/01/05 13:17:23;;;;;;;0.93;0.53;;;17.80;65.40;;;;;;10410255;28;20198;-62
2022/01/05 13:22:49;;;;;;;1.60;0.60;;;17.80;65.40;;;;;;10414494;28;20225;-66
2022/01/05 13:28:13;;;;;;;1.00;0.50;;;17.80;65.40;;;;;;10421295;28;20245;-63
2022/01/05 13:33:36;;;;;;;0.70;0.50;;;17.80;65.50;;;;;;10427615;28;20185;-63
2022/01/05 13:38:58;;;;;;;0.80;0.60;;;17.80;65.70;;;;;;10408792;28;20217;-63
2022/01/05 13:44:21;;;;;;;1.03;0.53;;;17.80;65.90;;;;;;10410244;28;20217;-64
2022/01/05 13:50:14;;;;;;;1.23;0.60;;;17.80;65.90;;;;;;10409237;28;20237;-63
2022/01/05 13:55:39;;;;;;;1.23;0.70;;;17.80;65.80;;;;;;10405075;28;20417;-62
2022/01/05 14:01:05;;;;;;;1.17;0.40;;;18.50;63.40;;;;;;10408260;28;20226;-65
2022/01/05 14:06:29;;;;;;;0.73;0.53;;;18.10;64.80;;;;;;10450639;28;20201;-63
2022/01/05 14:11:52;;;;;;;1.70;0.70;;;18.00;65.40;;;;;;10445259;28;20622;-63
2022/01/05 14:17:15;;;;;;;1.90;0.43;;;18.00;65.60;;;;;;10407641;28;20202;-63
2022/01/05 14:22:37;;;;;;;1.17;0.40;;;18.00;65.80;;;;;;10428063;28;20225;-64
2022/01/05 14:28:09;;;;;;;3.03;0.80;;;17.90;65.80;;;;;;10422376;28;20228;-66
2022/01/05 14:33:36;;;;;;;2.37;0.77;;;17.90;65.90;;;;;;10410895;28;20199;-64
2022/01/05 14:39:01;;;;;;;2.07;0.60;;;17.90;65.90;;;;;;10408579;28;20224;-66
2022/01/05 14:44:26;;;;;;;2.13;0.60;;;17.90;65.90;;;;;;10385078;28;20225;-63
2022/01/05 14:49:49;;;;;;;1.80;0.50;;;18.00;66.00;;;;;;10406475;28;20221;-70
2022/01/05 14:55:12;;;;;;;0.90;0.60;;;17.90;65.90;;;;;;10451670;28;20229;-63
2022/01/05 15:00:35;;;;;;;1.87;0.37;;;17.90;65.90;;;;;;10446121;28;20221;-64
2022/01/05 15:05:59;;;;;;;1.83;0.70;;;18.00;65.90;;;;;;10419511;28;20225;-66
2022/01/05 15:11:21;;;;;;;2.50;0.80;;;18.00;66.00;;;;;;10415420;28;20213;-64
2022/01/05 15:16:43;;;;;;;0.50;0.40;;;18.00;66.10;;;;;;10414164;28;20201;-67
2022/01/05 15:22:07;;;;;;;2.17;0.73;;;17.90;66.10;;;;;;10408348;28;20560;-64
2022/01/05 15:27:29;;;;;;;2.70;0.60;;;17.90;66.10;;;;;;10415382;28;20659;-66
2022/01/05 15:32:51;;;;;;;2.37;0.70;;;17.90;66.10;;;;;;10405327;28;20194;-64
2022/01/05 15:38:15;;;;;;;3.80;0.70;;;17.90;66.00;;;;;;10454719;28;20221;-65
2022/01/05 15:43:37;;;;;;;2.73;0.70;;;17.90;65.90;;;;;;10394079;28;20214;-65
2022/01/05 15:48:59;;;;;;;2.03;0.85;;;17.90;65.90;;;;;;10403421;28;20425;-65
2022/01/05 15:54:23;;;;;;;2.20;0.77;;;18.50;63.90;;;;;;10423846;28;20198;-64
2022/01/05 16:05:24;;;;;;;2.93;1.00;;;18.00;65.50;;;;;;10413069;28;20287;-67
2022/01/05 16:10:48;;;;;;;2.23;0.70;;;18.00;65.70;;;;;;10416320;28;20228;-66
2022/01/05 16:16:11;;;;;;;2.73;1.03;;;17.90;65.90;;;;;;10421355;28;20198;-63
2022/01/05 16:21:33;;;;;;;2.00;1.10;;;17.90;65.70;;;;;;10408460;28;20222;-63
2022/01/05 16:26:56;;;;;;;3.03;0.80;;;17.90;65.80;;;;;;10416539;28;20200;-63
2022/01/05 16:32:19;;;;;;;1.53;0.77;;;17.90;65.80;;;;;;10413801;28;20221;-64
2022/01/05 16:37:41;;;;;;;1.97;0.87;;;17.90;65.90;;;;;;10410788;28;20205;-64
2022/01/05 16:43:04;;;;;;;2.33;0.90;;;17.90;65.80;;;;;;10421874;23;20236;-66
2022/01/05 16:48:27;;;;;;;2.00;0.80;;;17.90;65.80;;;;;;10413470;28;20202;-66
2022/01/05 16:53:49;;;;;;;2.70;0.70;;;17.90;65.80;;;;;;10411309;28;20210;-66
2022/01/05 17:04:52;;;;;;;1.57;0.80;;;17.90;65.80;;;;;;10407273;28;20731;-64
2022/01/05 17:10:15;;;;;;;2.27;0.90;;;17.90;65.70;;;;;;10400648;28;20202;-66
2022/01/05 17:15:38;;;;;;;2.03;1.03;;;17.90;65.70;;;;;;10410096;28;20190;-65
2022/01/05 17:21:00;;;;;;;1.07;0.60;;;17.90;65.70;;;;;;10410880;28;20601;-65
2022/01/05 17:26:22;;;;;;;0.73;0.57;;;17.90;65.80;;;;;;10408739;28;20255;-66
2022/01/05 17:31:46;;;;;;;2.43;1.00;;;17.90;65.70;;;;;;10415071;28;20213;-66
2022/01/05 17:37:08;;;;;;;1.50;0.70;;;17.90;65.70;;;;;;10409059;28;20198;-66
2022/01/05 17:42:30;;;;;;;2.07;1.00;;;17.90;65.60;;;;;;10401890;28;20225;-66
2022/01/05 17:47:54;;;;;;;2.50;0.63;;;18.00;65.70;;;;;;10409907;28;20194;-66
2022/01/05 17:53:16;;;;;;;2.00;0.77;;;18.00;65.70;;;;;;10415153;28;20577;-66
2022/01/05 17:58:38;;;;;;;1.93;0.77;;;18.00;65.80;;;;;;10402630;28;20194;-65
2022/01/05 18:04:01;;;;;;;2.20;1.00;;;18.00;65.80;;;;;;10428447;28;20272;-65
2022/01/05 18:09:25;;;;;;;2.00;0.77;;;18.00;65.90;;;;;;10410784;28;20225;-65
2022/01/05 18:14:47;;;;;;;2.60;0.80;;;18.00;66.00;;;;;;10407637;28;20700;-65
2022/01/05 18:20:12;;;;;;;3.15;1.13;;;18.00;65.90;;;;;;10406657;28;20474;-68
2022/01/05 18:25:34;;;;;;;3.60;0.93;;;18.90;62.60;;;;;;10426995;28;20730;-69
2022/01/05 18:30:56;;;;;;;4.13;1.37;;;18.20;64.60;;;;;;10409848;28;20218;-69
2022/01/05 18:36:20;;;;;;;2.20;1.00;;;18.00;65.30;;;;;;10409238;28;20649;-69
2022/01/05 18:41:42;;;;;;;4.17;1.10;;;17.90;65.70;;;;;;10409088;28;20228;-69
2022/01/05 18:47:05;;;;;;;3.40;0.93;;;17.80;65.90;;;;;;10409754;28;20206;-68
2022/01/05 18:52:29;;;;;;;2.07;0.60;;;17.80;66.10;;;;;;10408756;28;20209;-69
2022/01/05 18:57:51;;;;;;;2.47;0.87;;;17.80;66.10;;;;;;10419559;28;20212;-69
2022/01/05 19:03:14;;;;;;;1.73;0.70;;;17.80;66.20;;;;;;10410530;28;20221;-69
2022/01/05 19:08:37;;;;;;;1.07;0.73;;;17.70;66.20;;;;;;10409664;28;20554;-68
2022/01/05 19:13:59;;;;;;;1.37;0.73;;;17.70;66.20;;;;;;10407935;28;20692;-69
2022/01/05 19:19:23;;;;;;;2.17;1.00;;;17.70;66.20;;;;;;10407795;28;20194;-69
2022/01/05 19:24:46;;;;;;;2.83;1.30;;;17.70;66.10;;;;;;10408288;28;20225;-69
2022/01/05 19:30:09;;;;;;;2.70;0.83;;;17.70;66.70;;;;;;10408162;28;20220;-69
2022/01/05 19:35:31;;;;;;;2.03;1.00;;;17.70;66.20;;;;;;10408019;28;20608;-69
2022/01/05 19:40:54;;;;;;;2.70;1.23;;;17.70;66.40;;;;;;10409672;28;20225;-69
2022/01/05 19:46:16;;;;;;;2.57;1.03;;;17.70;66.60;;;;;;10416275;28;20225;-69
2022/01/05 19:51:42;;;;;;;1.43;0.80;;;17.70;66.60;;;;;;10417043;28;20219;-69
2022/01/05 19:57:07;;;;;;;2.67;1.00;;;17.70;66.60;;;;;;10414478;28;20201;-69
2022/01/05 20:02:29;;;;;;;2.20;0.90;;;17.70;66.70;;;;;;10414349;28;20241;-69
2022/01/05 20:07:51;;;;;;;3.03;1.00;;;17.70;66.60;;;;;;10413533;28;20681;-68
2022/01/05 20:13:20;;;;;;;2.50;0.87;;;17.60;66.60;;;;;;10409621;28;20237;-69
2022/01/05 20:18:42;;;;;;;3.57;1.10;;;17.70;66.60;;;;;;10397977;28;20285;-69
2022/01/05 20:24:05;;;;;;;1.90;0.90;;;17.70;66.60;;;;;;10401679;28;20222;-69
2022/01/05 20:29:29;;;;;;;2.20;0.70;;;17.70;66.60;;;;;;10397883;28;20205;-69
2022/01/05 20:34:51;;;;;;;1.70;0.90;;;17.70;66.50;;;;;;10403114;28;20688;-69
2022/01/05 20:40:13;;;;;;;4.97;1.37;;;17.60;66.20;;;;;;10398689;28;20283;-69
2022/01/05 20:45:37;;;;;;;1.30;0.90;;;17.60;65.90;;;;;;10395698;28;20229;-68
2022/01/05 20:51:00;;;;;;;3.40;1.30;;;17.60;66.50;;;;;;10398184;28;20221;-68
2022/01/05 20:56:22;;;;;;;2.30;0.90;;;17.70;65.90;;;;;;10393971;28;20198;-68
2022/01/05 21:01:45;;;;;;;2.23;0.80;;;17.60;65.80;;;;;;10399017;28;20221;-68
2022/01/05 21:07:08;;;;;;;1.67;0.70;;;17.70;65.90;;;;;;10397040;28;20220;-68
2022/01/05 21:12:30;;;;;;;2.40;1.00;;;17.60;66.00;;;;;;10395508;28;20229;-68
2022/01/05 21:17:54;;;;;;;2.30;0.80;;;17.60;66.20;;;;;;10396043;28;20217;-68
2022/01/05 21:23:16;;;;;;;2.20;0.90;;;17.60;66.20;;;;;;10392503;28;20638;-68
2022/01/05 21:28:38;;;;;;;1.57;0.70;;;17.70;66.20;;;;;;10383809;28;20205;-68
2022/01/05 21:34:01;;;;;;;1.10;0.60;;;17.60;66.20;;;;;;10391758;28;20233;-68
2022/01/05 21:39:23;;;;;;;1.50;0.77;;;17.60;66.00;;;;;;10393270;28;20584;-68
2022/01/05 21:44:45;;;;;;;3.00;0.90;;;17.60;65.90;;;;;;10405625;28;20592;-68
2022/01/05 21:50:12;;;;;;;1.83;0.80;;;17.60;65.90;;;;;;10411945;28;20198;-68
2022/01/05 21:55:36;;;;;;;1.43;0.73;;;17.60;65.90;;;;;;10410682;28;20197;-68
2022/01/05 22:00:59;;;;;;;0.90;0.60;;;17.60;66.30;;;;;;10404908;28;20217;-68
2022/01/05 22:06:22;;;;;;;1.67;0.80;;;17.60;65.80;;;;;;10400101;28;20217;-68
2022/01/05 22:11:44;;;;;;;1.77;0.87;;;17.60;65.80;;;;;;10397673;28;20220;-68
2022/01/05 22:17:06;;;;;;;1.63;0.60;;;17.60;65.80;;;;;;10410380;28;20720;-68
2022/01/05 22:22:30;;;;;;;1.27;0.60;;;17.60;65.60;;;;;;10410948;28;20217;-68
2022/01/05 22:27:52;;;;;;;1.53;0.60;;;17.60;65.60;;;;;;10408680;28;20649;-68
2022/01/05 22:33:14;;;;;;;1.70;0.70;;;17.60;65.60;;;;;;10406030;28;20585;-68
2022/01/05 22:38:39;;;;;;;1.90;0.83;;;17.60;65.40;;;;;;10409715;28;20193;-68
2022/01/05 22:44:01;;;;;;;1.10;0.60;;;17.60;65.40;;;;;;10461393;22;20233;-63
2022/01/05 22:49:24;;;;;;;1.70;0.80;;;17.60;65.50;;;;;;10447400;28;20272;-63
2022/01/05 22:54:47;;;;;;;1.73;0.50;;;17.60;66.00;;;;;;10449968;28;20559;-63
2022/01/05 23:00:22;;;;;;;0.87;0.67;;;17.60;65.50;;;;;;10406386;28;20226;-63
2022/01/05 23:05:44;;;;;;;1.80;0.63;;;17.60;65.40;;;;;;10399690;28;20237;-62
2022/01/05 23:11:07;;;;;;;1.90;0.60;;;17.50;65.40;;;;;;10408853;28;20679;-63
2022/01/05 23:16:30;;;;;;;1.10;0.43;;;17.60;65.40;;;;;;10412419;28;20186;-63
2022/01/05 23:21:52;;;;;;;1.43;0.73;;;17.60;65.40;;;;;;10414953;28;20700;-63
2022/01/05 23:27:15;;;;;;;1.87;0.73;;;17.60;65.40;;;;;;10415226;28;20224;-63
2022/01/05 23:32:38;;;;;;;1.17;0.57;;;17.50;65.20;;;;;;10414422;28;20224;-63
2022/01/05 23:38:00;;;;;;;1.33;0.67;;;17.50;65.20;;;;;;10414949;28;20202;-63
2022/01/05 23:43:28;;;;;;;1.40;0.80;;;17.50;65.00;;;;;;10414734;28;20218;-63
2022/01/05 23:48:52;;;;;;;0.60;0.50;;;17.50;65.00;;;;;;10413629;28;20220;-63
2022/01/05 23:54:14;;;;;;;1.27;0.60;;;17.50;65.00;;;;;;10382124;28;20417;-63
2022/01/05 23:59:38;;;;;;;1.43;0.60;;;17.50;64.90;;;;;;10373578;28;20218;-63
